createdAt,value
2023-12-02T00:02:24.271Z,-3.80
2023-12-02T00:04:56.210Z,-3.80
2023-12-02T00:07:24.795Z,-3.80
2023-12-02T00:09:53.162Z,-3.80
2023-12-02T00:12:21.550Z,-3.70
2023-12-02T00:14:50.161Z,-3.70
2023-12-02T00:17:18.799Z,-3.70
2023-12-02T00:19:47.068Z,-3.70
2023-12-02T00:22:16.921Z,-3.70
2023-12-02T00:24:45.610Z,-3.60
2023-12-02T00:27:13.956Z,-3.60
2023-12-02T00:29:42.353Z,-3.50
2023-12-02T00:32:10.704Z,-3.60
2023-12-02T00:34:39.039Z,-3.50
2023-12-02T00:37:07.506Z,-3.60
2023-12-02T00:39:37.354Z,-3.50
2023-12-02T00:42:06.707Z,-3.50
2023-12-02T00:44:35.117Z,-3.50
2023-12-02T00:47:03.422Z,-3.50
2023-12-02T00:49:31.720Z,-3.50
2023-12-02T00:52:00.226Z,-3.50
2023-12-02T00:54:28.513Z,-3.50
2023-12-02T00:56:58.236Z,-3.50
2023-12-02T00:59:26.590Z,-3.50
2023-12-02T01:01:54.965Z,-3.50
2023-12-02T01:04:23.376Z,-3.40
2023-12-02T01:06:51.934Z,-3.40
2023-12-02T01:09:20.331Z,-3.30
2023-12-02T01:11:48.714Z,-3.20
2023-12-02T01:14:18.317Z,-3.30
2023-12-02T01:16:46.538Z,-3.40
2023-12-02T01:19:14.947Z,-3.40
2023-12-02T01:21:43.244Z,-3.40
2023-12-02T01:24:11.538Z,-3.40
2023-12-02T01:26:39.972Z,-3.50
2023-12-02T01:29:08.497Z,-3.40
2023-12-02T01:31:38.466Z,-3.40
2023-12-02T01:34:06.814Z,-3.50
2023-12-02T01:36:35.168Z,-3.60
2023-12-02T01:39:03.600Z,-3.50
2023-12-02T01:41:33.054Z,-3.40
2023-12-02T01:44:01.374Z,-3.30
2023-12-02T01:46:30.425Z,-3.30
2023-12-02T01:49:01.659Z,-3.30
2023-12-02T01:51:30.437Z,-3.30
2023-12-02T01:53:58.750Z,-3.20
2023-12-02T01:56:27.559Z,-3.20
2023-12-02T01:58:56.413Z,-3.30
2023-12-02T02:01:24.893Z,-3.30
2023-12-02T02:03:53.933Z,-3.30
2023-12-02T02:06:23.610Z,-3.10
2023-12-02T02:08:51.967Z,-3.20
2023-12-02T02:11:20.337Z,-3.20
2023-12-02T02:13:48.771Z,-3.30
2023-12-02T02:16:17.365Z,-3.30
2023-12-02T02:18:45.649Z,-3.30
2023-12-02T02:21:18.998Z,-3.30
2023-12-02T02:23:47.290Z,-3.30
2023-12-02T02:26:15.638Z,-3.20
2023-12-02T02:28:43.997Z,-3.20
2023-12-02T02:31:12.405Z,-3.20
2023-12-02T02:33:40.739Z,-3.20
2023-12-02T02:36:10.405Z,-3.20
2023-12-02T02:38:40.197Z,-3.10
2023-12-02T02:41:09.014Z,-3.10
2023-12-02T02:43:37.252Z,-3.20
2023-12-02T02:46:05.663Z,-3.20
2023-12-02T02:48:34.150Z,-3.30
2023-12-02T02:51:02.581Z,-3.30
2023-12-02T02:53:30.854Z,-3.30
2023-12-02T02:56:00.575Z,-3.20
2023-12-02T02:58:31.492Z,-3.30
2023-12-02T03:00:59.801Z,-3.40
2023-12-02T03:03:28.157Z,-3.40
2023-12-02T03:05:57.553Z,-3.30
2023-12-02T03:08:26.118Z,-3.30
2023-12-02T03:10:54.549Z,-3.40
2023-12-02T03:13:24.221Z,-3.40
2023-12-02T03:15:52.526Z,-3.30
2023-12-02T03:18:21.024Z,-3.40
2023-12-02T03:20:49.448Z,-3.30
2023-12-02T03:23:17.808Z,-3.20
2023-12-02T03:25:46.784Z,-3.10
2023-12-02T03:28:15.554Z,-2.90
2023-12-02T03:30:45.377Z,-3.10
2023-12-02T03:33:13.797Z,-3.20
2023-12-02T03:35:42.069Z,-3.20
2023-12-02T03:38:10.333Z,-3.20
2023-12-02T03:40:38.930Z,-3.10
2023-12-02T03:43:07.365Z,-3.10
2023-12-02T03:45:35.698Z,-3.10
2023-12-02T03:48:06.137Z,-3.10
2023-12-02T03:50:34.529Z,-3.10
2023-12-02T03:53:04.091Z,-3.10
2023-12-02T03:55:32.887Z,-3.20
2023-12-02T03:58:01.221Z,-3.10
2023-12-02T04:00:29.745Z,-3.00
2023-12-02T04:03:00.602Z,-2.90
2023-12-02T04:05:30.388Z,-2.90
2023-12-02T04:07:58.801Z,-2.90
2023-12-02T04:10:27.829Z,-3.00
2023-12-02T04:12:56.097Z,-3.10
2023-12-02T04:15:24.449Z,-3.10
2023-12-02T04:17:52.730Z,-3.10
2023-12-02T04:20:25.960Z,-3.10
2023-12-02T04:22:58.416Z,-3.20
2023-12-02T04:25:28.216Z,-3.20
2023-12-02T04:27:56.608Z,-3.20
2023-12-02T04:30:24.990Z,-3.10
2023-12-02T04:32:53.385Z,-3.10
2023-12-02T04:35:21.791Z,-3.20
2023-12-02T04:37:50.140Z,-3.20
2023-12-02T04:40:21.010Z,-3.20
2023-12-02T04:42:49.275Z,-3.10
2023-12-02T04:45:17.601Z,-3.10
2023-12-02T04:47:45.949Z,-2.90
2023-12-02T04:50:14.484Z,-3.20
2023-12-02T04:52:42.758Z,-3.20
2023-12-02T04:55:11.793Z,-3.20
2023-12-02T04:57:41.472Z,-3.10
2023-12-02T05:00:15.530Z,-3.10
2023-12-02T05:02:44.670Z,-3.10
2023-12-02T05:05:14.063Z,-3.10
2023-12-02T05:07:43.132Z,-3.10
2023-12-02T05:10:12.370Z,-3.00
2023-12-02T05:12:42.473Z,-3.00
2023-12-02T05:15:11.488Z,-3.00
2023-12-02T05:17:40.027Z,-3.00
2023-12-02T05:20:12.592Z,-3.00
2023-12-02T05:22:40.955Z,-3.00
2023-12-02T05:25:10.402Z,-3.00
2023-12-02T05:27:39.116Z,-3.00
2023-12-02T05:30:10.756Z,-2.90
2023-12-02T05:32:39.468Z,-3.00
2023-12-02T05:35:09.903Z,-2.90
2023-12-02T05:37:38.207Z,-2.90
2023-12-02T05:40:09.649Z,-2.90
2023-12-02T05:42:38.054Z,-2.90
2023-12-02T05:45:09.287Z,-2.90
2023-12-02T05:47:37.713Z,-2.90
2023-12-02T05:50:07.165Z,-2.90
2023-12-02T05:52:35.549Z,-2.90
2023-12-02T05:55:04.996Z,-2.90
2023-12-02T05:57:34.529Z,-2.90
2023-12-02T06:00:03.201Z,-2.90
2023-12-02T06:02:34.303Z,-2.80
2023-12-02T06:05:02.843Z,-2.80
2023-12-02T06:07:31.068Z,-2.90
2023-12-02T06:09:59.473Z,-2.90
2023-12-02T06:12:27.807Z,-2.90
2023-12-02T06:14:56.248Z,-2.90
2023-12-02T06:17:24.611Z,-2.80
2023-12-02T06:19:54.300Z,-2.60
2023-12-02T06:22:22.655Z,-2.80
2023-12-02T06:24:50.987Z,-2.80
2023-12-02T06:27:19.329Z,-2.90
2023-12-02T06:29:48.011Z,-2.90
2023-12-02T06:32:16.429Z,-2.90
2023-12-02T06:34:45.027Z,-2.80
2023-12-02T06:37:14.798Z,-2.80
2023-12-02T06:39:43.572Z,-2.80
2023-12-02T06:42:12.096Z,-2.70
2023-12-02T06:44:42.584Z,-2.80
2023-12-02T06:47:12.293Z,-2.80
2023-12-02T06:49:40.730Z,-2.80
2023-12-02T06:52:09.423Z,-2.80
2023-12-02T06:54:40.066Z,-2.80
2023-12-02T06:57:08.570Z,-2.80
2023-12-02T06:59:36.849Z,-2.60
2023-12-02T07:02:05.511Z,-2.80
2023-12-02T07:04:33.832Z,-2.80
2023-12-02T07:07:02.135Z,-2.80
2023-12-02T07:09:30.588Z,-2.80
2023-12-02T07:12:00.377Z,-2.60
2023-12-02T07:14:28.689Z,-2.60
2023-12-02T07:16:57.038Z,-2.40
2023-12-02T07:19:25.590Z,-2.70
2023-12-02T07:21:54.019Z,-2.60
2023-12-02T07:24:22.535Z,-2.60
2023-12-02T07:26:51.081Z,-2.60
2023-12-02T07:29:20.731Z,-2.60
2023-12-02T07:31:48.979Z,-2.60
2023-12-02T07:34:17.363Z,-2.60
2023-12-02T07:36:45.642Z,-2.70
2023-12-02T07:39:14.558Z,-2.70
2023-12-02T07:41:43.786Z,-2.60
2023-12-02T07:44:13.037Z,-2.50
2023-12-02T07:46:43.103Z,-2.50
2023-12-02T07:49:11.378Z,-2.50
2023-12-02T07:51:39.650Z,-2.50
2023-12-02T07:54:08.197Z,-2.60
2023-12-02T07:56:39.017Z,-2.60
2023-12-02T07:59:07.671Z,-2.60
2023-12-02T08:01:36.494Z,-2.50
2023-12-02T08:04:06.439Z,-2.50
2023-12-02T08:06:34.897Z,-2.50
2023-12-02T08:09:03.281Z,-2.40
2023-12-02T08:11:31.982Z,-2.40
2023-12-02T08:14:00.931Z,-2.40
2023-12-02T08:16:29.672Z,-2.50
2023-12-02T08:18:58.064Z,-2.30
2023-12-02T08:21:27.793Z,-2.20
2023-12-02T08:23:56.205Z,-2.20
2023-12-02T08:26:24.798Z,-2.20
2023-12-02T08:28:53.976Z,-2.10
2023-12-02T08:31:23.278Z,-2.10
2023-12-02T08:33:51.555Z,-2.10
2023-12-02T08:36:20.701Z,-2.00
2023-12-02T08:38:50.557Z,-2.10
2023-12-02T08:41:19.000Z,-2.10
2023-12-02T08:43:47.385Z,-2.10
2023-12-02T08:46:16.470Z,-2.10
2023-12-02T08:48:44.882Z,-2.10
2023-12-02T08:51:13.432Z,-2.00
2023-12-02T08:53:41.933Z,-2.00
2023-12-02T08:56:12.486Z,-1.90
2023-12-02T08:58:40.847Z,-1.90
2023-12-02T09:01:09.604Z,-1.90
2023-12-02T09:03:37.991Z,-1.90
2023-12-02T09:06:06.991Z,-2.00
2023-12-02T09:08:35.584Z,-2.00
2023-12-02T09:11:04.144Z,-2.10
2023-12-02T09:13:48.658Z,-2.00
2023-12-02T09:16:21.274Z,-1.80
2023-12-02T09:18:49.973Z,-1.90
2023-12-02T09:21:43.748Z,-1.80
2023-12-02T09:24:35.761Z,-1.90
2023-12-02T09:27:07.267Z,-1.80
2023-12-02T09:29:39.479Z,-1.80
2023-12-02T09:32:31.779Z,-1.80
2023-12-02T09:35:01.407Z,-1.70
2023-12-02T09:37:58.217Z,-1.50
2023-12-02T09:40:47.078Z,-1.60
2023-12-02T09:43:27.343Z,-1.60
2023-12-02T09:46:21.633Z,-1.60
2023-12-02T09:49:04.814Z,-1.60
2023-12-02T09:51:52.782Z,-1.60
2023-12-02T09:54:47.478Z,-1.50
2023-12-02T09:57:25.776Z,-1.60
2023-12-02T10:00:06.224Z,-1.60
2023-12-02T10:02:50.647Z,-1.70
2023-12-02T10:05:20.251Z,-1.70
2023-12-02T10:08:04.817Z,-1.60
2023-12-02T10:10:45.342Z,-1.60
2023-12-02T10:13:21.206Z,-1.40
2023-12-02T10:15:51.102Z,-1.40
2023-12-02T10:18:25.121Z,-1.50
2023-12-02T10:21:01.363Z,-1.40
2023-12-02T10:23:34.313Z,-1.30
2023-12-02T10:26:08.090Z,-1.30
2023-12-02T10:28:48.794Z,-1.30
2023-12-02T10:31:30.890Z,-1.30
2023-12-02T10:34:14.341Z,-1.30
2023-12-02T10:36:44.173Z,-1.40
2023-12-02T10:39:14.987Z,-1.50
2023-12-02T10:41:49.878Z,-1.30
2023-12-02T10:44:22.704Z,-1.20
2023-12-02T10:46:51.656Z,-1.20
2023-12-02T10:49:23.193Z,-1.20
2023-12-02T10:54:26.493Z,-1.20
2023-12-02T10:57:05.535Z,-1.30
2023-12-02T10:59:37.010Z,-1.30
2023-12-02T11:02:29.122Z,-1.50
2023-12-02T11:05:14.493Z,-1.40
2023-12-02T11:07:49.001Z,-1.30
2023-12-02T11:10:23.463Z,-1.30
2023-12-02T11:12:54.697Z,-1.30
2023-12-02T11:15:24.760Z,-1.20
2023-12-02T11:18:02.876Z,-1.30
2023-12-02T11:20:44.931Z,-1.20
2023-12-02T11:23:36.640Z,-1.20
2023-12-02T11:26:23.969Z,-1.10
2023-12-02T11:29:12.693Z,-1.10
2023-12-02T11:32:13.048Z,-1.10
2023-12-02T11:35:01.407Z,-1.10
2023-12-02T11:37:43.818Z,-1.20
2023-12-02T11:40:22.301Z,-1.20
2023-12-02T11:43:09.360Z,-1.20
2023-12-02T11:45:41.731Z,-1.10
2023-12-02T11:48:18.823Z,-1.10
2023-12-02T11:51:09.151Z,-1.10
2023-12-02T11:54:03.982Z,-1.20
2023-12-02T11:56:33.180Z,-1.20
2023-12-02T11:59:11.155Z,-1.10
2023-12-02T12:02:00.154Z,-1.00
2023-12-02T12:04:57.141Z,-1.00
2023-12-02T12:07:39.378Z,-1.00
2023-12-02T12:10:15.588Z,-1.10
2023-12-02T12:12:48.269Z,-1.10
2023-12-02T12:15:16.929Z,-1.20
2023-12-02T12:17:45.349Z,-1.20
2023-12-02T12:20:20.515Z,-1.30
2023-12-02T12:22:49.226Z,-1.20
2023-12-02T12:25:19.195Z,-1.20
2023-12-02T12:27:47.976Z,-1.10
2023-12-02T12:30:16.688Z,-1.20
2023-12-02T12:32:45.561Z,-1.20
2023-12-02T12:35:16.233Z,-1.20
2023-12-02T12:37:45.768Z,-1.10
2023-12-02T12:40:15.183Z,-1.20
2023-12-02T12:42:53.123Z,-1.20
2023-12-02T12:45:21.659Z,-1.20
2023-12-02T12:47:50.689Z,-1.10
2023-12-02T12:50:23.900Z,-1.20
2023-12-02T12:52:53.626Z,-1.10
2023-12-02T12:55:24.923Z,-1.10
2023-12-02T12:58:08.434Z,-1.10
2023-12-02T13:00:41.026Z,-1.10
2023-12-02T13:03:34.110Z,-1.20
2023-12-02T13:06:14.597Z,-1.10
2023-12-02T13:08:51.546Z,-1.10
2023-12-02T13:11:28.476Z,-1.00
2023-12-02T13:14:10.860Z,-1.00
2023-12-02T13:16:40.879Z,-1.10
2023-12-02T13:19:12.474Z,-1.10
2023-12-02T13:21:42.928Z,-1.00
2023-12-02T13:24:14.192Z,-1.00
2023-12-02T13:26:42.992Z,-1.00
2023-12-02T13:29:15.521Z,-1.00
2023-12-02T13:31:44.502Z,-1.10
2023-12-02T13:34:27.609Z,-1.10
2023-12-02T13:36:56.566Z,-1.10
2023-12-02T13:39:28.628Z,-1.00
2023-12-02T13:41:57.984Z,-1.10
2023-12-02T13:44:32.089Z,-1.10
2023-12-02T13:47:06.703Z,-1.10
2023-12-02T13:49:41.752Z,-1.20
2023-12-02T13:52:34.983Z,-1.20
2023-12-02T13:55:37.868Z,-1.20
2023-12-02T13:58:16.024Z,-1.20
2023-12-02T14:01:07.211Z,-1.10
2023-12-02T14:03:57.753Z,-1.20
2023-12-02T14:06:30.511Z,-1.10
2023-12-02T14:09:01.084Z,-1.20
2023-12-02T14:11:42.468Z,-1.20
2023-12-02T14:14:28.114Z,-1.20
2023-12-02T14:17:09.624Z,-1.30
2023-12-02T14:20:05.654Z,-1.20
2023-12-02T14:22:49.576Z,-1.10
2023-12-02T14:25:35.686Z,-1.10
2023-12-02T14:28:23.762Z,-1.00
2023-12-02T14:31:08.250Z,-1.20
2023-12-02T14:34:13.142Z,-1.10
2023-12-02T14:36:56.970Z,-1.30
2023-12-02T14:39:47.610Z,-1.30
2023-12-02T14:42:27.108Z,-1.20
2023-12-02T14:44:56.728Z,-1.20
2023-12-02T14:47:25.236Z,-1.20
2023-12-02T14:49:56.357Z,-1.10
2023-12-02T14:52:26.615Z,-1.20
2023-12-02T14:54:55.387Z,-1.20
2023-12-02T14:57:26.756Z,-1.30
2023-12-02T14:59:59.557Z,-1.30
2023-12-02T15:02:41.856Z,-1.20
2023-12-02T15:05:13.836Z,-1.20
2023-12-02T15:07:44.792Z,-1.40
2023-12-02T15:10:25.092Z,-1.40
2023-12-02T15:13:03.096Z,-1.30
2023-12-02T15:15:39.204Z,-1.20
2023-12-02T15:18:09.868Z,-1.30
2023-12-02T15:20:39.840Z,-1.20
2023-12-02T15:23:36.951Z,-1.20
2023-12-02T15:26:06.140Z,-1.20
2023-12-02T15:28:50.323Z,-1.20
2023-12-02T15:31:32.822Z,-1.30
2023-12-02T15:34:03.040Z,-1.30
2023-12-02T15:36:33.063Z,-1.30
2023-12-02T15:39:01.618Z,-1.40
2023-12-02T15:41:30.131Z,-1.40
2023-12-02T15:44:00.500Z,-1.40
2023-12-02T15:46:29.546Z,-1.40
2023-12-02T15:48:59.279Z,-1.30
2023-12-02T15:51:30.322Z,-1.30
2023-12-02T15:54:01.336Z,-1.40
2023-12-02T15:56:32.709Z,-1.40
2023-12-02T15:59:02.541Z,-1.40
2023-12-02T16:01:31.686Z,-1.40
2023-12-02T16:04:00.388Z,-1.40
2023-12-02T16:06:32.516Z,-1.30
2023-12-02T16:09:04.199Z,-1.10
2023-12-02T16:11:37.414Z,-1.10
2023-12-02T16:14:07.348Z,-1.10
2023-12-02T16:16:38.878Z,-1.30
2023-12-02T16:19:08.138Z,-1.20
2023-12-02T16:21:36.727Z,-1.20
2023-12-02T16:24:08.077Z,-1.20
2023-12-02T16:26:38.727Z,-1.30
2023-12-02T16:29:08.643Z,-1.20
2023-12-02T16:31:38.235Z,-1.30
2023-12-02T16:34:06.731Z,-1.30
2023-12-02T16:36:38.259Z,-1.30
2023-12-02T16:39:13.221Z,-1.30
2023-12-02T16:41:42.364Z,-1.30
2023-12-02T16:44:10.674Z,-1.40
2023-12-02T16:46:42.472Z,-1.40
2023-12-02T16:49:23.347Z,-1.30
2023-12-02T16:51:53.137Z,-1.30
2023-12-02T16:54:23.616Z,-1.40
2023-12-02T16:56:55.687Z,-1.30
2023-12-02T16:59:50.647Z,-1.30
2023-12-02T17:02:35.040Z,-1.30
2023-12-02T17:05:05.027Z,-1.40
2023-12-02T17:07:34.177Z,-1.40
2023-12-02T17:10:16.636Z,-1.40
2023-12-02T17:12:46.649Z,-1.30
2023-12-02T17:15:28.758Z,-1.40
2023-12-02T17:18:00.733Z,-1.30
2023-12-02T17:20:38.147Z,-1.40
2023-12-02T17:23:09.561Z,-1.40
2023-12-02T17:25:56.204Z,-1.40
2023-12-02T17:28:25.061Z,-1.50
2023-12-02T17:30:53.534Z,-1.50
2023-12-02T17:33:21.928Z,-1.40
2023-12-02T17:35:50.243Z,-1.40
2023-12-02T17:38:18.641Z,-1.40
2023-12-02T17:40:48.355Z,-1.50
2023-12-02T17:43:16.800Z,-1.50
2023-12-02T17:45:45.291Z,-1.30
2023-12-02T17:48:14.330Z,-1.50
2023-12-02T17:50:43.266Z,-1.50
2023-12-02T17:53:12.302Z,-1.50
2023-12-02T17:55:41.357Z,-1.50
2023-12-02T17:58:12.106Z,-1.40
2023-12-02T18:00:41.918Z,-1.40
2023-12-02T18:03:11.593Z,-1.50
2023-12-02T18:05:40.066Z,-1.50
2023-12-02T18:08:08.773Z,-1.30
2023-12-02T18:10:37.362Z,-1.50
2023-12-02T18:13:05.820Z,-1.50
2023-12-02T18:15:36.105Z,-1.50
2023-12-02T18:18:05.580Z,-1.50
2023-12-02T18:20:34.483Z,-1.50
2023-12-02T18:23:03.109Z,-1.50
2023-12-02T18:25:31.431Z,-1.40
2023-12-02T18:27:59.914Z,-1.30
2023-12-02T18:30:28.565Z,-1.40
2023-12-02T18:32:58.999Z,-1.30
2023-12-02T18:35:27.532Z,-1.40
2023-12-02T18:37:56.144Z,-1.40
2023-12-02T18:40:26.110Z,-1.40
2023-12-02T18:42:54.636Z,-1.50
2023-12-02T18:45:23.063Z,-1.40
2023-12-02T18:47:52.753Z,-1.50
2023-12-02T18:50:22.651Z,-1.40
2023-12-02T18:52:50.898Z,-1.50
2023-12-02T18:55:19.686Z,-1.50
2023-12-02T18:57:48.196Z,-1.50
2023-12-02T19:00:17.276Z,-1.40
2023-12-02T19:02:45.581Z,-1.40
2023-12-02T19:05:14.341Z,-1.40
2023-12-02T19:07:44.148Z,-1.30
2023-12-02T19:10:12.551Z,-1.40
2023-12-02T19:12:40.983Z,-1.50
2023-12-02T19:15:10.363Z,-1.50
2023-12-02T19:17:38.942Z,-1.60
2023-12-02T19:20:09.060Z,-1.70
2023-12-02T19:22:37.692Z,-1.80
2023-12-02T19:25:09.331Z,-1.80
2023-12-02T19:27:38.114Z,-1.80
2023-12-02T19:30:08.384Z,-1.70
2023-12-02T19:32:37.782Z,-1.70
2023-12-02T19:35:07.191Z,-1.70
2023-12-02T19:37:35.826Z,-1.80
2023-12-02T19:40:04.962Z,-1.80
2023-12-02T19:42:34.940Z,-1.70
2023-12-02T19:45:03.943Z,-1.80
2023-12-02T19:47:32.564Z,-1.70
2023-12-02T19:50:01.296Z,-1.70
2023-12-02T19:52:30.110Z,-1.60
2023-12-02T19:54:58.392Z,-1.70
2023-12-02T19:57:26.812Z,-1.70
2023-12-02T19:59:57.759Z,-1.60
2023-12-02T20:02:26.410Z,-1.50
2023-12-02T20:04:54.968Z,-1.60
2023-12-02T20:07:23.627Z,-1.60
2023-12-02T20:09:52.160Z,-1.70
2023-12-02T20:12:23.247Z,-1.60
2023-12-02T20:14:52.076Z,-1.70
2023-12-02T20:17:21.999Z,-1.70
2023-12-02T20:19:50.625Z,-1.80
2023-12-02T20:22:19.096Z,-1.80
2023-12-02T20:24:47.458Z,-1.70
2023-12-02T20:27:16.156Z,-1.70
2023-12-02T20:29:44.732Z,-1.70
2023-12-02T20:32:13.148Z,-1.70
2023-12-02T20:34:43.072Z,-1.60
2023-12-02T20:37:12.711Z,-1.70
2023-12-02T20:39:41.315Z,-1.50
2023-12-02T20:42:09.866Z,-1.70
2023-12-02T20:44:38.437Z,-1.70
2023-12-02T20:47:07.199Z,-1.60
2023-12-02T20:49:35.673Z,-1.60
2023-12-02T20:52:05.886Z,-1.60
2023-12-02T20:54:34.294Z,-1.60
2023-12-02T20:57:02.697Z,-1.60
2023-12-02T20:59:32.321Z,-1.60
2023-12-02T21:02:00.840Z,-1.60
2023-12-02T21:04:29.298Z,-1.50
2023-12-02T21:06:57.772Z,-1.60
2023-12-02T21:09:27.948Z,-1.60
2023-12-02T21:11:56.334Z,-1.60
2023-12-02T21:14:24.670Z,-1.70
2023-12-02T21:16:53.134Z,-1.70
2023-12-02T21:19:21.834Z,-1.70
2023-12-02T21:21:50.384Z,-1.70
2023-12-02T21:24:18.868Z,-1.70
2023-12-02T21:26:48.773Z,-1.60
2023-12-02T21:29:17.333Z,-1.70
2023-12-02T21:31:45.541Z,-1.70
2023-12-02T21:34:17.572Z,-1.70
2023-12-02T21:36:46.105Z,-1.70
2023-12-02T21:39:20.019Z,-1.70
2023-12-02T21:41:50.065Z,-1.70
2023-12-02T21:44:18.885Z,-1.80
2023-12-02T21:46:48.027Z,-1.80
2023-12-02T21:49:20.681Z,-1.80
2023-12-02T21:51:51.464Z,-1.70
2023-12-02T21:54:22.005Z,-1.70
2023-12-02T21:56:53.554Z,-1.70
2023-12-02T21:59:23.218Z,-1.70
2023-12-02T22:01:53.155Z,-1.70
2023-12-02T22:04:22.835Z,-1.70
2023-12-02T22:06:52.279Z,-1.70
2023-12-02T22:09:39.071Z,-1.70
2023-12-02T22:12:25.542Z,-1.70
2023-12-02T22:14:54.153Z,-1.70
2023-12-02T22:17:24.494Z,-1.60
2023-12-02T22:19:54.346Z,-1.60
2023-12-02T22:22:53.440Z,-1.60
2023-12-02T22:25:22.733Z,-1.60
2023-12-02T22:28:03.670Z,-1.60
2023-12-02T22:30:40.973Z,-1.60
2023-12-02T22:33:09.405Z,-1.60
2023-12-02T22:35:40.639Z,-1.60
2023-12-02T22:38:12.781Z,-1.60
2023-12-02T22:40:46.850Z,-1.50
2023-12-02T22:43:23.570Z,-1.60
2023-12-02T22:45:52.851Z,-1.50
2023-12-02T22:48:36.028Z,-1.60
2023-12-02T22:51:06.572Z,-1.60
2023-12-02T22:53:36.750Z,-1.60
2023-12-02T22:56:05.960Z,-1.60
2023-12-02T22:58:40.299Z,-1.60
2023-12-02T23:01:09.933Z,-1.50
2023-12-02T23:03:41.081Z,-1.60
2023-12-02T23:06:11.117Z,-1.60
2023-12-02T23:08:40.221Z,-1.60
2023-12-02T23:11:23.615Z,-1.60
2023-12-02T23:13:53.686Z,-1.60
2023-12-02T23:16:40.784Z,-1.60
2023-12-02T23:19:23.532Z,-1.50
2023-12-02T23:21:52.543Z,-1.60
2023-12-02T23:24:21.132Z,-1.60
2023-12-02T23:26:49.661Z,-1.50
2023-12-02T23:29:19.522Z,-1.50
2023-12-02T23:31:47.830Z,-1.50
2023-12-02T23:34:16.299Z,-1.60
2023-12-02T23:36:45.079Z,-1.60
2023-12-02T23:39:25.870Z,-1.50
2023-12-02T23:41:57.057Z,-1.40
2023-12-02T23:44:44.854Z,-1.50
2023-12-02T23:47:18.258Z,-1.50
2023-12-02T23:49:46.742Z,-1.50
2023-12-02T23:52:15.942Z,-1.50
2023-12-02T23:54:44.312Z,-1.50
2023-12-02T23:57:13.001Z,-1.50
2023-12-02T23:59:43.670Z,-1.50
